ABM weather

Northern Peninsula Airport
Bamaga, Queensland, Australia

Public forecast

Using degrees Celsius for public forecast. Weather courtesy of forecast.io.

METAR (pilot weather report)

Closest report is Horn Island Airport, 24.0 nm (44.5 km) NNW. Retrieved 2019/03/19 07:30 UTC (2 minutes ago):

YHID 190730Z AUTO 27012KT 9999 // BKN015 OVC021 27/25 Q1003

TAF (pilot weather forecast)

Closest forecast is Horn Island Airport, 24.0 nm (44.5 km) NNW. Retrieved 2019/03/19 06:00 UTC (2 hours ago):

TAF YHID 190502Z 1906/2006 28012KT 9999 -SHRA SCT018 BKN030 TEMPO 1906/2006 3000 SHRA BKN012 PROB30 TEMPO 1906/2006 VRB20G30KT 0800 TSRA BKN008 SCT015CB